createdAt,value
2023-03-29T00:00:04.487Z,0.00
2023-03-29T00:01:04.606Z,0.00
2023-03-29T00:02:04.568Z,0.00
2023-03-29T00:03:04.586Z,0.00
2023-03-29T00:04:04.740Z,0.00
2023-03-29T00:05:04.440Z,0.00
2023-03-29T00:06:04.407Z,0.00
2023-03-29T00:07:04.798Z,0.00
2023-03-29T00:08:04.667Z,0.00
2023-03-29T00:09:04.365Z,0.00
2023-03-29T00:10:04.450Z,0.00
2023-03-29T00:11:04.636Z,0.00
2023-03-29T00:12:04.345Z,0.00
2023-03-29T00:13:04.327Z,0.00
2023-03-29T00:14:04.332Z,0.00
2023-03-29T00:15:04.321Z,0.00
2023-03-29T00:16:04.309Z,0.00
2023-03-29T00:17:04.326Z,0.00
2023-03-29T00:18:04.275Z,0.00
2023-03-29T00:19:04.236Z,0.00
2023-03-29T00:20:04.255Z,0.00
2023-03-29T00:21:04.555Z,0.00
2023-03-29T00:22:04.205Z,0.00
2023-03-29T00:23:04.204Z,0.00
2023-03-29T00:24:04.173Z,0.00
2023-03-29T00:25:04.192Z,0.00
2023-03-29T00:26:07.183Z,0.00
2023-03-29T00:27:04.243Z,0.00
2023-03-29T00:28:04.125Z,0.00
2023-03-29T00:29:04.116Z,0.00
2023-03-29T00:30:04.114Z,0.00
2023-03-29T00:31:04.559Z,0.00
2023-03-29T00:32:04.157Z,0.00
2023-03-29T00:33:04.131Z,0.00
2023-03-29T00:34:04.064Z,0.00
2023-03-29T00:35:04.031Z,0.00
2023-03-29T00:36:04.115Z,0.00
2023-03-29T00:37:04.012Z,0.00
2023-03-29T00:38:04.023Z,0.00
2023-03-29T00:39:04.024Z,0.00
2023-03-29T00:40:03.972Z,0.00
2023-03-29T00:41:04.301Z,0.00
2023-03-29T00:42:03.970Z,0.00
2023-03-29T00:43:03.957Z,0.00
2023-03-29T00:44:03.964Z,0.00
2023-03-29T00:45:04.015Z,0.00
2023-03-29T00:46:03.928Z,0.00
2023-03-29T00:47:03.948Z,0.00
2023-03-29T00:48:03.947Z,0.00
2023-03-29T00:49:03.869Z,0.00
2023-03-29T00:50:03.874Z,0.00
2023-03-29T00:51:04.151Z,0.00
2023-03-29T00:52:03.823Z,0.00
2023-03-29T00:53:03.838Z,0.00
2023-03-29T00:54:03.782Z,0.00
2023-03-29T00:55:03.807Z,0.00
2023-03-29T00:56:03.805Z,0.00
2023-03-29T00:57:03.824Z,0.00
2023-03-29T00:58:03.745Z,0.00
2023-03-29T00:59:03.742Z,0.00
2023-03-29T01:00:03.717Z,0.00
2023-03-29T01:01:03.981Z,0.00
2023-03-29T01:02:03.810Z,0.00
2023-03-29T01:03:03.813Z,0.00
2023-03-29T01:04:03.696Z,0.00
2023-03-29T01:05:03.653Z,0.00
2023-03-29T01:06:03.661Z,0.00
2023-03-29T01:07:03.704Z,0.00
2023-03-29T01:08:03.641Z,0.00
2023-03-29T01:09:03.624Z,0.00
2023-03-29T01:10:03.587Z,0.00
2023-03-29T01:11:03.870Z,0.00
2023-03-29T01:12:03.580Z,0.00
2023-03-29T01:13:03.551Z,0.00
2023-03-29T01:14:03.577Z,0.00
2023-03-29T01:15:03.548Z,0.00
2023-03-29T01:16:03.567Z,0.00
2023-03-29T01:17:03.503Z,0.00
2023-03-29T01:18:03.538Z,0.00
2023-03-29T01:19:03.499Z,0.00
2023-03-29T01:20:03.507Z,0.00
2023-03-29T01:21:03.738Z,0.00
2023-03-29T01:22:03.444Z,0.00
2023-03-29T01:23:03.431Z,0.00
2023-03-29T01:24:03.429Z,0.00
2023-03-29T01:25:03.418Z,0.00
2023-03-29T01:26:03.441Z,0.00
2023-03-29T01:27:03.403Z,0.00
2023-03-29T01:28:03.383Z,0.00
2023-03-29T01:29:03.368Z,0.00
2023-03-29T01:30:03.337Z,0.00
2023-03-29T01:31:03.471Z,0.00
2023-03-29T01:32:03.420Z,0.00
2023-03-29T01:33:03.340Z,0.00
2023-03-29T01:34:03.296Z,0.00
2023-03-29T01:35:03.269Z,0.00
2023-03-29T01:36:03.277Z,0.00
2023-03-29T01:37:03.258Z,0.00
2023-03-29T01:38:03.285Z,0.00
2023-03-29T01:39:03.239Z,0.00
2023-03-29T01:40:03.241Z,0.00
2023-03-29T01:41:03.783Z,0.00
2023-03-29T01:42:03.180Z,0.00
2023-03-29T01:43:03.221Z,0.00
2023-03-29T01:44:03.183Z,0.00
2023-03-29T01:45:03.170Z,0.00
2023-03-29T01:46:03.146Z,0.00
2023-03-29T01:47:03.120Z,0.00
2023-03-29T01:48:03.130Z,0.00
2023-03-29T01:49:03.097Z,0.00
2023-03-29T01:50:03.114Z,0.00
2023-03-29T01:51:03.241Z,0.00
2023-03-29T01:52:03.054Z,0.00
2023-03-29T01:53:03.051Z,0.00
2023-03-29T01:54:03.032Z,0.00
2023-03-29T01:55:03.050Z,0.00
2023-03-29T01:56:03.058Z,0.00
2023-03-29T01:57:03.073Z,0.00
2023-03-29T01:58:02.985Z,0.00
2023-03-29T01:59:03.035Z,0.00
2023-03-29T02:00:02.991Z,0.00
2023-03-29T02:01:03.314Z,0.00
2023-03-29T02:02:03.387Z,0.00
2023-03-29T02:03:03.029Z,0.00
2023-03-29T02:04:02.908Z,0.00
2023-03-29T02:05:02.904Z,0.00
2023-03-29T02:06:02.890Z,0.00
2023-03-29T02:07:02.873Z,0.00
2023-03-29T02:08:02.906Z,0.00
2023-03-29T02:09:02.852Z,0.00
2023-03-29T02:10:02.852Z,0.00
2023-03-29T02:11:03.014Z,0.00
2023-03-29T02:12:02.794Z,0.00
2023-03-29T02:13:02.812Z,0.00
2023-03-29T02:14:02.821Z,0.00
2023-03-29T02:15:02.761Z,0.00
2023-03-29T02:16:02.867Z,0.00
2023-03-29T02:17:02.735Z,0.00
2023-03-29T02:18:02.764Z,0.00
2023-03-29T02:19:02.708Z,0.00
2023-03-29T02:20:02.732Z,0.00
2023-03-29T02:21:02.865Z,0.00
2023-03-29T02:22:02.692Z,0.00
2023-03-29T02:23:02.676Z,0.00
2023-03-29T02:24:02.646Z,0.00
2023-03-29T02:25:02.638Z,0.00
2023-03-29T02:26:02.652Z,0.00
2023-03-29T02:27:02.616Z,0.00
2023-03-29T02:28:02.613Z,0.00
2023-03-29T02:29:02.611Z,0.00
2023-03-29T02:30:02.574Z,0.00
2023-03-29T02:31:02.760Z,0.00
2023-03-29T02:32:02.593Z,0.00
2023-03-29T02:33:02.587Z,0.00
2023-03-29T02:34:02.525Z,0.00
2023-03-29T02:35:02.526Z,0.00
2023-03-29T02:36:02.584Z,0.00
2023-03-29T02:37:02.482Z,0.00
2023-03-29T02:38:02.517Z,0.00
2023-03-29T02:39:02.473Z,0.00
2023-03-29T02:40:02.497Z,0.00
2023-03-29T02:41:02.679Z,0.00
2023-03-29T02:42:02.435Z,0.00
2023-03-29T02:43:02.446Z,0.00
2023-03-29T02:44:02.418Z,0.00
2023-03-29T02:45:02.393Z,0.00
2023-03-29T02:46:02.382Z,0.00
2023-03-29T02:47:02.376Z,0.00
2023-03-29T02:48:02.387Z,0.00
2023-03-29T02:49:02.372Z,0.00
2023-03-29T02:50:02.380Z,0.00
2023-03-29T02:51:02.581Z,0.00
2023-03-29T02:52:02.303Z,0.00
2023-03-29T02:53:02.287Z,0.00
2023-03-29T02:54:02.295Z,0.00
2023-03-29T02:55:02.270Z,0.00
2023-03-29T02:56:02.345Z,0.00
2023-03-29T02:57:02.281Z,0.00
2023-03-29T02:58:02.237Z,0.00
2023-03-29T02:59:02.238Z,0.00
2023-03-29T03:00:02.212Z,0.00
2023-03-29T03:01:02.428Z,0.00
2023-03-29T03:02:02.211Z,0.00
2023-03-29T03:03:02.408Z,0.00
2023-03-29T03:04:02.235Z,0.00
2023-03-29T03:05:02.165Z,0.00
2023-03-29T03:06:02.126Z,0.00
2023-03-29T03:07:02.129Z,0.00
2023-03-29T03:08:02.149Z,0.00
2023-03-29T03:09:02.122Z,0.00
2023-03-29T03:10:02.066Z,0.00
2023-03-29T03:11:02.288Z,0.00
2023-03-29T03:12:02.084Z,0.00
2023-03-29T03:13:02.070Z,0.00
2023-03-29T03:14:02.075Z,0.00
2023-03-29T03:15:02.035Z,0.00
2023-03-29T03:16:02.013Z,0.00
2023-03-29T03:17:04.584Z,0.00
2023-03-29T03:18:02.030Z,0.00
2023-03-29T03:19:01.995Z,0.00
2023-03-29T03:20:02.000Z,0.00
2023-03-29T03:21:02.460Z,0.00
2023-03-29T03:22:01.932Z,0.00
2023-03-29T03:23:01.922Z,0.00
2023-03-29T03:24:01.915Z,0.00
2023-03-29T03:25:01.880Z,0.00
2023-03-29T03:26:01.911Z,0.00
2023-03-29T03:27:01.888Z,0.00
2023-03-29T03:28:01.835Z,0.00
2023-03-29T03:29:01.823Z,0.00
2023-03-29T03:30:01.856Z,0.00
2023-03-29T03:31:02.037Z,0.00
2023-03-29T03:32:01.855Z,0.00
2023-03-29T03:33:01.809Z,0.00
2023-03-29T03:34:01.770Z,0.00
2023-03-29T03:35:01.739Z,0.00
2023-03-29T03:36:01.782Z,0.00
2023-03-29T03:37:01.829Z,0.00
2023-03-29T03:38:01.724Z,0.00
2023-03-29T03:39:01.699Z,0.00
2023-03-29T03:40:01.687Z,0.00
2023-03-29T03:41:02.012Z,0.00
2023-03-29T03:42:01.656Z,0.00
2023-03-29T03:43:01.673Z,0.00
2023-03-29T03:44:01.672Z,0.00
2023-03-29T03:45:01.636Z,0.00
2023-03-29T03:46:01.669Z,0.00
2023-03-29T03:47:01.608Z,0.00
2023-03-29T03:48:01.667Z,0.00
2023-03-29T03:49:01.654Z,0.00
2023-03-29T03:50:01.647Z,0.00
2023-03-29T03:51:01.780Z,0.00
2023-03-29T03:52:01.532Z,0.00
2023-03-29T03:53:01.542Z,0.00
2023-03-29T03:54:01.506Z,0.00
2023-03-29T03:55:01.500Z,0.00
2023-03-29T03:56:01.518Z,0.00
2023-03-29T03:57:01.522Z,0.00
2023-03-29T03:58:01.497Z,0.00
2023-03-29T03:59:01.456Z,0.00
2023-03-29T04:00:01.463Z,0.00
2023-03-29T04:01:01.685Z,0.00
2023-03-29T04:02:01.509Z,0.00
2023-03-29T04:03:01.581Z,0.00
2023-03-29T04:04:01.657Z,0.00
2023-03-29T04:05:01.365Z,0.00
2023-03-29T04:06:01.368Z,0.00
2023-03-29T04:07:01.351Z,0.00
2023-03-29T04:08:01.361Z,0.00
2023-03-29T04:09:01.340Z,0.00
2023-03-29T04:10:01.301Z,0.00
2023-03-29T04:11:01.497Z,0.00
2023-03-29T04:12:01.303Z,0.00
2023-03-29T04:13:01.312Z,0.00
2023-03-29T04:14:01.340Z,0.00
2023-03-29T04:15:01.298Z,0.00
2023-03-29T04:16:01.840Z,0.00
2023-03-29T04:17:01.238Z,0.00
2023-03-29T04:18:01.228Z,0.00
2023-03-29T04:19:01.294Z,0.00
2023-03-29T04:20:01.241Z,0.00
2023-03-29T04:21:01.517Z,0.00
2023-03-29T04:22:01.188Z,0.00
2023-03-29T04:23:01.165Z,0.00
2023-03-29T04:24:01.173Z,0.00
2023-03-29T04:25:01.113Z,0.00
2023-03-29T04:26:01.138Z,0.00
2023-03-29T04:27:01.086Z,0.00
2023-03-29T04:28:01.120Z,0.00
2023-03-29T04:29:01.088Z,0.00
2023-03-29T04:30:01.052Z,0.00
2023-03-29T04:31:01.280Z,0.00
2023-03-29T04:32:01.095Z,0.00
2023-03-29T04:33:01.135Z,0.00
2023-03-29T04:34:01.033Z,0.00
2023-03-29T04:35:00.999Z,0.00
2023-03-29T04:36:01.031Z,0.00
2023-03-29T04:37:00.992Z,0.00
2023-03-29T04:38:01.035Z,0.00
2023-03-29T04:39:00.959Z,0.00
2023-03-29T04:40:00.936Z,0.00
2023-03-29T04:41:01.318Z,0.00
2023-03-29T04:42:00.930Z,0.00
2023-03-29T04:43:01.023Z,0.00
2023-03-29T04:44:00.950Z,0.00
2023-03-29T04:45:00.971Z,0.00
2023-03-29T04:46:00.938Z,0.00
2023-03-29T04:47:00.845Z,0.00
2023-03-29T04:48:01.153Z,0.00
2023-03-29T04:49:00.829Z,0.00
2023-03-29T04:50:00.863Z,0.00
2023-03-29T04:51:01.024Z,0.00
2023-03-29T04:52:00.850Z,0.00
2023-03-29T04:53:00.816Z,0.00
2023-03-29T04:54:00.778Z,0.00
2023-03-29T04:55:00.860Z,0.00
2023-03-29T04:56:00.988Z,0.00
2023-03-29T04:57:00.769Z,0.00
2023-03-29T04:58:00.782Z,0.00
2023-03-29T04:59:00.784Z,0.00
2023-03-29T05:00:00.681Z,0.00
2023-03-29T05:01:00.812Z,0.00
2023-03-29T05:02:00.719Z,0.00
2023-03-29T05:03:00.773Z,0.00
2023-03-29T05:04:00.779Z,0.00
2023-03-29T05:05:00.616Z,0.00
2023-03-29T05:06:00.604Z,0.00
2023-03-29T05:07:00.614Z,0.00
2023-03-29T05:08:00.619Z,0.00
2023-03-29T05:09:00.599Z,0.00
2023-03-29T05:10:00.565Z,0.00
2023-03-29T05:11:00.774Z,5.62
2023-03-29T05:12:00.528Z,5.62
2023-03-29T05:13:00.539Z,5.62
2023-03-29T05:14:00.537Z,5.62
2023-03-29T05:15:00.497Z,5.62
2023-03-29T05:16:00.522Z,5.62
2023-03-29T05:17:00.461Z,5.62
2023-03-29T05:18:00.473Z,5.62
2023-03-29T05:19:00.484Z,5.62
2023-03-29T05:20:00.520Z,11.25
2023-03-29T05:21:00.773Z,11.25
2023-03-29T05:22:00.422Z,11.25
2023-03-29T05:23:00.400Z,11.25
2023-03-29T05:24:00.415Z,11.25
2023-03-29T05:25:00.371Z,11.25
2023-03-29T05:26:00.420Z,11.25
2023-03-29T05:27:00.359Z,11.25
2023-03-29T05:28:00.336Z,11.25
2023-03-29T05:29:00.318Z,11.25
2023-03-29T05:30:00.331Z,11.25
2023-03-29T05:31:00.653Z,11.25
2023-03-29T05:32:00.334Z,11.25
2023-03-29T05:33:00.347Z,16.88
2023-03-29T05:34:00.254Z,16.88
2023-03-29T05:35:01.194Z,16.88
2023-03-29T05:36:00.304Z,22.50
2023-03-29T05:37:00.216Z,22.50
2023-03-29T05:38:00.267Z,22.50
2023-03-29T05:39:00.210Z,22.50
2023-03-29T05:40:06.082Z,28.12
2023-03-29T05:41:00.342Z,28.12
2023-03-29T05:42:00.178Z,22.50
2023-03-29T05:43:00.123Z,28.12
2023-03-29T05:44:00.170Z,33.75
2023-03-29T05:45:00.157Z,39.38
2023-03-29T05:46:00.168Z,50.62
2023-03-29T05:47:00.133Z,56.25
2023-03-29T05:48:00.176Z,50.62
2023-03-29T05:49:00.108Z,45.00
2023-03-29T05:50:00.104Z,56.25
2023-03-29T05:51:00.213Z,56.25
2023-03-29T05:52:00.025Z,56.25
2023-03-29T05:53:00.019Z,50.62
2023-03-29T05:53:59.995Z,45.00
2023-03-29T05:55:00.024Z,50.62
2023-03-29T05:56:00.045Z,56.25
2023-03-29T05:57:00.171Z,56.25
2023-03-29T05:57:59.981Z,50.62
2023-03-29T05:58:59.970Z,56.25
2023-03-29T05:59:59.914Z,67.50
2023-03-29T06:01:00.112Z,67.50
2023-03-29T06:02:00.631Z,67.50
2023-03-29T06:03:13.272Z,61.88
2023-03-29T06:03:59.935Z,61.88
2023-03-29T06:04:59.933Z,61.88
2023-03-29T06:05:59.852Z,61.88
2023-03-29T06:06:59.837Z,67.50
2023-03-29T06:07:59.863Z,73.12
2023-03-29T06:08:59.822Z,78.75
2023-03-29T06:09:59.793Z,84.38
2023-03-29T06:11:01.208Z,95.62
2023-03-29T06:11:59.772Z,90.00
2023-03-29T06:12:59.748Z,90.00
2023-03-29T06:13:59.777Z,95.62
2023-03-29T06:14:59.738Z,106.88
2023-03-29T06:15:59.729Z,106.88
2023-03-29T06:16:59.762Z,112.50
2023-03-29T06:17:59.739Z,123.75
2023-03-29T06:18:59.709Z,129.38
2023-03-29T06:19:59.720Z,140.62
2023-03-29T06:20:59.733Z,151.88
2023-03-29T06:21:59.638Z,163.12
2023-03-29T06:22:59.621Z,180.00
2023-03-29T06:23:59.664Z,202.50
2023-03-29T06:24:59.613Z,219.38
2023-03-29T06:25:59.631Z,247.50
2023-03-29T06:26:59.581Z,275.62
2023-03-29T06:27:59.568Z,281.25
2023-03-29T06:28:59.563Z,253.12
2023-03-29T06:29:59.533Z,202.50
2023-03-29T06:30:59.611Z,168.75
2023-03-29T06:31:59.535Z,163.12
2023-03-29T06:32:59.589Z,163.12
2023-03-29T06:33:59.483Z,157.50
2023-03-29T06:34:59.481Z,157.50
2023-03-29T06:35:59.504Z,180.00
2023-03-29T06:36:59.467Z,191.25
2023-03-29T06:37:59.835Z,202.50
2023-03-29T06:38:59.421Z,213.75
2023-03-29T06:39:59.431Z,225.00
2023-03-29T06:40:59.408Z,202.50
2023-03-29T06:42:02.087Z,168.75
2023-03-29T06:42:59.426Z,151.88
2023-03-29T06:43:59.406Z,157.50
2023-03-29T06:44:59.356Z,168.75
2023-03-29T06:45:59.353Z,168.75
2023-03-29T06:46:59.332Z,168.75
2023-03-29T06:47:59.386Z,151.88
2023-03-29T06:48:59.293Z,140.62
2023-03-29T06:49:59.310Z,140.62
2023-03-29T06:50:59.348Z,140.62
2023-03-29T06:51:59.299Z,151.88
2023-03-29T06:52:59.262Z,180.00
2023-03-29T06:53:59.222Z,191.25
2023-03-29T06:54:59.242Z,180.00
2023-03-29T06:55:59.258Z,163.12
2023-03-29T06:56:59.245Z,140.62
2023-03-29T06:58:01.652Z,123.75
2023-03-29T06:58:59.170Z,129.38
2023-03-29T06:59:59.147Z,157.50
2023-03-29T07:00:59.151Z,168.75
2023-03-29T07:01:59.237Z,185.62
2023-03-29T07:02:59.158Z,191.25
2023-03-29T07:03:59.143Z,174.38
2023-03-29T07:04:59.084Z,180.00
2023-03-29T07:05:59.073Z,185.62
2023-03-29T07:06:59.066Z,196.88
2023-03-29T07:07:59.085Z,208.12
2023-03-29T07:08:59.045Z,219.38
2023-03-29T07:09:59.015Z,225.00
2023-03-29T07:10:59.034Z,219.38
2023-03-29T07:11:59.010Z,213.75
2023-03-29T07:12:59.016Z,219.38
2023-03-29T07:13:59.000Z,219.38
2023-03-29T07:14:58.948Z,219.38
2023-03-29T07:15:58.981Z,225.00
2023-03-29T07:16:58.949Z,236.25
2023-03-29T07:17:58.989Z,241.88
2023-03-29T07:18:58.917Z,236.25
2023-03-29T07:19:58.932Z,253.12
2023-03-29T07:20:58.909Z,258.75
2023-03-29T07:21:58.880Z,281.25
2023-03-29T07:22:58.850Z,303.75
2023-03-29T07:23:58.843Z,303.75
2023-03-29T07:24:58.821Z,286.88
2023-03-29T07:25:58.883Z,275.62
2023-03-29T07:27:03.724Z,275.62
2023-03-29T07:27:58.826Z,286.88
2023-03-29T07:28:58.838Z,331.88
2023-03-29T07:29:58.756Z,343.12
2023-03-29T07:30:58.749Z,309.38
2023-03-29T07:31:58.796Z,315.00
2023-03-29T07:32:58.829Z,354.38
2023-03-29T07:33:58.720Z,371.25
2023-03-29T07:34:58.699Z,365.62
2023-03-29T07:35:58.712Z,376.88
2023-03-29T07:36:58.674Z,382.50
2023-03-29T07:37:58.694Z,382.50
2023-03-29T07:38:58.669Z,393.75
2023-03-29T07:39:58.646Z,466.88
2023-03-29T07:40:58.624Z,540.00
2023-03-29T07:41:58.626Z,613.12
2023-03-29T07:42:58.605Z,641.25
2023-03-29T07:43:58.605Z,596.25
2023-03-29T07:44:58.589Z,613.12
2023-03-29T07:45:58.580Z,753.75
2023-03-29T07:46:58.547Z,866.25
2023-03-29T07:47:58.999Z,900.00
2023-03-29T07:48:58.510Z,933.75
2023-03-29T07:49:58.539Z,1023.75
2023-03-29T07:50:58.485Z,1051.88
2023-03-29T07:51:58.487Z,1046.25
2023-03-29T07:52:58.476Z,1400.62
2023-03-29T07:53:58.450Z,894.38
2023-03-29T07:54:58.449Z,680.62
2023-03-29T07:55:58.459Z,652.50
2023-03-29T07:56:58.440Z,562.50
2023-03-29T07:57:58.394Z,450.00
2023-03-29T07:58:58.429Z,455.62
2023-03-29T07:59:58.406Z,478.12
2023-03-29T08:00:58.395Z,450.00
2023-03-29T08:01:58.385Z,393.75
2023-03-29T08:02:58.415Z,405.00
2023-03-29T08:03:58.492Z,478.12
2023-03-29T08:04:58.335Z,579.38
2023-03-29T08:05:58.337Z,675.00
2023-03-29T08:06:58.299Z,708.75
2023-03-29T08:07:58.294Z,652.50
2023-03-29T08:08:58.276Z,568.12
2023-03-29T08:09:58.258Z,579.38
2023-03-29T08:10:58.238Z,652.50
2023-03-29T08:11:58.221Z,708.75
2023-03-29T08:12:58.240Z,720.00
2023-03-29T08:13:58.231Z,658.12
2023-03-29T08:14:58.185Z,601.88
2023-03-29T08:15:58.243Z,573.75
2023-03-29T08:16:58.176Z,534.38
2023-03-29T08:17:58.205Z,483.75
2023-03-29T08:18:58.277Z,478.12
2023-03-29T08:19:58.137Z,483.75
2023-03-29T08:20:58.141Z,461.25
2023-03-29T08:21:58.086Z,416.25
2023-03-29T08:22:58.102Z,393.75
2023-03-29T08:23:58.063Z,371.25
2023-03-29T08:24:58.054Z,393.75
2023-03-29T08:25:58.066Z,416.25
2023-03-29T08:26:58.025Z,466.88
2023-03-29T08:27:58.055Z,506.25
2023-03-29T08:28:58.022Z,472.50
2023-03-29T08:29:57.992Z,438.75
2023-03-29T08:30:58.031Z,421.88
2023-03-29T08:31:58.005Z,416.25
2023-03-29T08:32:58.030Z,461.25
2023-03-29T08:33:57.945Z,489.38
2023-03-29T08:34:57.938Z,506.25
2023-03-29T08:35:58.014Z,495.00
2023-03-29T08:36:57.896Z,433.12
2023-03-29T08:37:58.303Z,388.12
2023-03-29T08:38:57.904Z,365.62
2023-03-29T08:39:57.878Z,371.25
2023-03-29T08:40:57.882Z,360.00
2023-03-29T08:41:57.847Z,354.38
2023-03-29T08:42:57.816Z,371.25
2023-03-29T08:43:57.844Z,433.12
2023-03-29T08:44:57.812Z,472.50
2023-03-29T08:45:57.828Z,506.25
2023-03-29T08:46:57.888Z,540.00
2023-03-29T08:47:57.839Z,562.50
2023-03-29T08:48:57.739Z,618.75
2023-03-29T08:49:57.822Z,646.88
2023-03-29T08:50:57.721Z,630.00
2023-03-29T08:51:57.720Z,601.88
2023-03-29T08:52:57.706Z,585.00
2023-03-29T08:53:57.666Z,585.00
2023-03-29T08:54:57.675Z,562.50
2023-03-29T08:55:57.681Z,545.62
2023-03-29T08:56:57.701Z,483.75
2023-03-29T08:57:57.655Z,466.88
2023-03-29T08:58:57.602Z,450.00
2023-03-29T08:59:57.605Z,421.88
2023-03-29T09:00:57.600Z,405.00
2023-03-29T09:01:57.644Z,399.38
2023-03-29T09:02:57.631Z,399.38
2023-03-29T09:03:57.654Z,427.50
2023-03-29T09:04:57.547Z,433.12
2023-03-29T09:05:57.568Z,410.62
2023-03-29T09:06:57.545Z,433.12
2023-03-29T09:07:57.514Z,500.62
2023-03-29T09:08:57.489Z,568.12
2023-03-29T09:09:57.481Z,562.50
2023-03-29T09:10:57.522Z,590.62
2023-03-29T09:11:57.451Z,635.62
2023-03-29T09:12:57.536Z,669.38
2023-03-29T09:13:57.477Z,675.00
2023-03-29T09:14:57.392Z,663.75
2023-03-29T09:15:57.414Z,635.62
2023-03-29T09:16:57.375Z,613.12
2023-03-29T09:17:57.405Z,590.62
2023-03-29T09:18:57.356Z,618.75
2023-03-29T09:19:57.383Z,607.50
2023-03-29T09:20:57.345Z,556.88
2023-03-29T09:21:57.325Z,556.88
2023-03-29T09:22:57.305Z,607.50
2023-03-29T09:23:57.294Z,618.75
2023-03-29T09:24:57.268Z,641.25
2023-03-29T09:25:57.291Z,680.62
2023-03-29T09:26:57.262Z,663.75
2023-03-29T09:27:57.252Z,663.75
2023-03-29T09:28:57.258Z,652.50
2023-03-29T09:29:57.202Z,646.88
2023-03-29T09:30:57.204Z,641.25
2023-03-29T09:31:57.352Z,680.62
2023-03-29T09:32:57.268Z,720.00
2023-03-29T09:33:57.212Z,765.00
2023-03-29T09:34:57.180Z,798.75
2023-03-29T09:35:57.189Z,787.50
2023-03-29T09:36:57.175Z,787.50
2023-03-29T09:37:57.157Z,770.62
2023-03-29T09:38:57.107Z,753.75
2023-03-29T09:39:57.079Z,793.12
2023-03-29T09:40:57.057Z,826.88
2023-03-29T09:41:57.052Z,781.88
2023-03-29T09:42:57.036Z,815.62
2023-03-29T09:43:57.060Z,933.75
2023-03-29T09:44:57.013Z,990.00
2023-03-29T09:45:57.061Z,990.00
2023-03-29T09:46:56.988Z,984.38
2023-03-29T09:47:57.071Z,956.25
2023-03-29T09:48:56.982Z,950.62
2023-03-29T09:49:57.003Z,973.12
2023-03-29T09:50:56.982Z,973.12
2023-03-29T09:51:56.906Z,939.38
2023-03-29T09:52:56.896Z,894.38
2023-03-29T09:53:56.926Z,843.75
2023-03-29T09:54:56.880Z,815.62
2023-03-29T09:55:56.916Z,793.12
2023-03-29T09:56:56.864Z,787.50
2023-03-29T09:57:56.836Z,798.75
2023-03-29T09:58:56.865Z,826.88
2023-03-29T09:59:56.816Z,849.38
2023-03-29T10:00:57.012Z,866.25
2023-03-29T10:01:56.829Z,866.25
2023-03-29T10:02:56.928Z,877.50
2023-03-29T10:03:56.812Z,905.62
2023-03-29T10:04:56.766Z,939.38
2023-03-29T10:05:56.741Z,973.12
2023-03-29T10:06:56.728Z,1001.25
2023-03-29T10:07:56.735Z,1018.12
2023-03-29T10:08:56.741Z,1012.50
2023-03-29T10:09:56.705Z,961.88
2023-03-29T10:10:56.683Z,950.62
2023-03-29T10:11:56.678Z,978.75
2023-03-29T10:12:56.692Z,1006.88
2023-03-29T10:13:56.681Z,1029.38
2023-03-29T10:14:56.658Z,1040.62
2023-03-29T10:15:56.657Z,1051.88
2023-03-29T10:16:56.692Z,1057.50
2023-03-29T10:17:56.667Z,1046.25
2023-03-29T10:18:56.588Z,1029.38
2023-03-29T10:19:57.785Z,1023.75
2023-03-29T10:20:57.574Z,1035.00
2023-03-29T10:21:56.680Z,1057.50
2023-03-29T10:22:56.600Z,1074.38
2023-03-29T10:23:56.685Z,1080.00
2023-03-29T10:24:56.579Z,1051.88
2023-03-29T10:25:56.511Z,1018.12
2023-03-29T10:26:56.481Z,1063.12
2023-03-29T10:27:56.444Z,1091.25
2023-03-29T10:28:56.449Z,1102.50
2023-03-29T10:29:56.432Z,1108.12
2023-03-29T10:30:56.450Z,1130.62
2023-03-29T10:31:56.492Z,1158.75
2023-03-29T10:32:56.414Z,1192.50
2023-03-29T10:33:56.378Z,1209.38
2023-03-29T10:34:56.364Z,1147.50
2023-03-29T10:35:56.343Z,1040.62
2023-03-29T10:36:56.345Z,995.62
2023-03-29T10:37:56.355Z,995.62
2023-03-29T10:38:56.312Z,945.00
2023-03-29T10:39:56.321Z,877.50
2023-03-29T10:40:56.298Z,798.75
2023-03-29T10:41:56.328Z,703.12
2023-03-29T10:42:56.251Z,686.25
2023-03-29T10:43:56.276Z,714.38
2023-03-29T10:44:56.234Z,765.00
2023-03-29T10:45:56.320Z,765.00
2023-03-29T10:46:56.218Z,793.12
2023-03-29T10:47:56.305Z,804.38
2023-03-29T10:48:56.179Z,810.00
2023-03-29T10:49:57.122Z,843.75
2023-03-29T10:50:56.178Z,900.00
2023-03-29T10:51:56.198Z,978.75
2023-03-29T10:52:56.135Z,1012.50
2023-03-29T10:53:56.112Z,973.12
2023-03-29T10:54:56.110Z,905.62
2023-03-29T10:55:56.126Z,900.00
2023-03-29T10:56:56.146Z,871.88
2023-03-29T10:57:56.213Z,860.62
2023-03-29T10:58:56.095Z,900.00
2023-03-29T10:59:56.052Z,984.38
2023-03-29T11:00:56.032Z,1068.75
2023-03-29T11:01:56.108Z,1113.75
2023-03-29T11:02:56.048Z,1119.38
2023-03-29T11:03:56.109Z,1141.88
2023-03-29T11:04:55.989Z,1130.62
2023-03-29T11:05:55.972Z,1119.38
2023-03-29T11:06:55.939Z,1063.12
2023-03-29T11:07:55.965Z,1012.50
2023-03-29T11:08:55.927Z,1018.12
2023-03-29T11:09:55.892Z,1051.88
2023-03-29T11:10:55.907Z,1085.62
2023-03-29T11:12:04.695Z,1040.62
2023-03-29T11:12:55.919Z,1035.00
2023-03-29T11:13:58.022Z,1040.62
2023-03-29T11:14:55.828Z,1102.50
2023-03-29T11:15:55.894Z,1170.00
2023-03-29T11:16:55.824Z,1192.50
2023-03-29T11:17:55.902Z,1175.62
2023-03-29T11:18:55.800Z,1096.88
2023-03-29T11:19:55.793Z,1068.75
2023-03-29T11:20:55.761Z,1091.25
2023-03-29T11:21:55.756Z,1102.50
2023-03-29T11:22:55.729Z,1108.12
2023-03-29T11:23:55.728Z,1102.50
2023-03-29T11:24:55.715Z,1080.00
2023-03-29T11:25:55.756Z,1080.00
2023-03-29T11:26:55.690Z,1125.00
2023-03-29T11:27:55.679Z,1175.62
2023-03-29T11:28:55.649Z,1231.88
2023-03-29T11:29:55.633Z,1305.00
2023-03-29T11:30:55.682Z,1305.00
2023-03-29T11:31:55.764Z,1355.62
2023-03-29T11:32:55.641Z,1513.12
2023-03-29T11:33:55.595Z,1580.62
2023-03-29T11:34:55.580Z,1726.88
2023-03-29T11:35:55.623Z,1833.75
2023-03-29T11:36:55.546Z,2036.25
2023-03-29T11:37:55.582Z,1665.00
2023-03-29T11:38:55.548Z,1653.75
2023-03-29T11:39:55.514Z,1518.75
2023-03-29T11:40:55.667Z,1170.00
2023-03-29T11:41:55.496Z,1091.25
2023-03-29T11:42:55.479Z,1186.88
2023-03-29T11:43:55.526Z,1271.25
2023-03-29T11:44:55.487Z,1248.75
2023-03-29T11:45:55.442Z,1276.88
2023-03-29T11:46:55.488Z,1327.50
2023-03-29T11:47:55.551Z,1389.38
2023-03-29T11:48:55.460Z,1473.75
2023-03-29T11:49:55.411Z,1321.88
2023-03-29T11:50:55.435Z,1276.88
2023-03-29T11:51:55.370Z,1231.88
2023-03-29T11:52:55.353Z,1209.38
2023-03-29T11:53:55.353Z,1198.12
2023-03-29T11:54:55.350Z,1164.38
2023-03-29T11:55:55.362Z,1231.88
2023-03-29T11:56:55.318Z,1366.88
2023-03-29T11:57:55.335Z,1468.12
2023-03-29T11:58:55.297Z,1456.88
2023-03-29T11:59:55.276Z,1395.00
2023-03-29T12:00:55.240Z,1316.25
2023-03-29T12:01:55.292Z,1265.62
2023-03-29T12:02:55.321Z,1209.38
2023-03-29T12:03:55.396Z,1164.38
2023-03-29T12:04:55.208Z,1170.00
2023-03-29T12:05:55.181Z,1254.38
2023-03-29T12:06:55.176Z,1327.50
2023-03-29T12:07:55.204Z,1215.00
2023-03-29T12:08:55.164Z,1153.12
2023-03-29T12:09:55.156Z,1113.75
2023-03-29T12:10:55.133Z,995.62
2023-03-29T12:11:55.104Z,967.50
2023-03-29T12:12:55.088Z,1040.62
2023-03-29T12:13:55.141Z,1125.00
2023-03-29T12:14:55.089Z,1164.38
2023-03-29T12:15:55.047Z,1147.50
2023-03-29T12:16:55.068Z,1068.75
2023-03-29T12:17:55.115Z,1125.00
2023-03-29T12:18:55.016Z,1361.25
2023-03-29T12:19:55.036Z,1125.00
2023-03-29T12:20:55.048Z,1080.00
2023-03-29T12:21:55.031Z,1035.00
2023-03-29T12:22:55.023Z,1063.12
2023-03-29T12:23:54.956Z,1074.38
2023-03-29T12:24:54.960Z,1012.50
2023-03-29T12:25:54.959Z,978.75
2023-03-29T12:26:54.911Z,1006.88
2023-03-29T12:27:54.911Z,1040.62
2023-03-29T12:28:54.903Z,1051.88
2023-03-29T12:29:54.902Z,1102.50
2023-03-29T12:30:54.853Z,1153.12
2023-03-29T12:31:55.019Z,1170.00
2023-03-29T12:32:54.922Z,1175.62
2023-03-29T12:33:54.843Z,1248.75
2023-03-29T12:34:54.857Z,1209.38
2023-03-29T12:35:54.914Z,1141.88
2023-03-29T12:36:54.831Z,1125.00
2023-03-29T12:37:54.839Z,1102.50
2023-03-29T12:38:54.806Z,1080.00
2023-03-29T12:39:54.754Z,1068.75
2023-03-29T12:40:54.757Z,1091.25
2023-03-29T12:41:54.723Z,1153.12
2023-03-29T12:42:54.724Z,1186.88
2023-03-29T12:43:54.720Z,1181.25
2023-03-29T12:44:54.717Z,1170.00
2023-03-29T12:45:54.804Z,1147.50